Latest Weather Observations for Mount Baw Baw

IDV60801

Issued at 8:42 am EST Sunday 18 April 2021 (issued every 10 minutes, with the page automatically refreshed every 10 minutes)

About weather observations | Map of weather stations | Latest weather observations for VIC | Other Formats
Station Details ID: 085291 Name: MOUNT BAW BAW Lat: -37.84 Lon: 146.27 Height: 1561.0 m
Data from the previous 72 hours. | See also: Recent months at Mount Baw Baw
Date/Time
EST
Temp
°C
App
Temp
°C
Dew
Point
°C
Rel
Hum
%
Delta-T
°C
Wind Press
QNH
hPa
Press
MSL
hPa
Rain since
9am
mm
Dir  Spd
km/h
Gust
km/h
Spd
kts
Gust
kts
18/08:30am 2.2 -2.7 2.1 99 0.0 SW 17 26 - 14 - - -
18/08:00am 2.5 -2.7 2.4 99 0.0 SW 19 28 - 15 - - -
18/07:30am 2.4 -3.0 2.3 99 0.0 SW 20 32 - 17 - - -
18/07:00am 1.9 -3.6 1.8 99 0.0 SW 20 28 - 15 - - -
18/06:30am 1.7 -3.6 1.6 99 0.0 SW 19 24 - 13 - - -
18/06:00am 1.9 -4.0 1.8 99 0.0 SW 22 28 - 15 - - -
18/05:30am 1.8 -3.5 1.7 99 0.0 SW 19 28 - 15 - - -
18/05:00am 1.9 -4.0 1.8 99 0.0 SW 22 30 - 16 - - -
18/04:30am 1.9 -3.4 1.8 99 0.0 SW 19 26 - 14 - - -
18/04:00am 1.8 -3.5 1.7 99 0.0 SW 19 26 - 14 - - -
18/03:30am 1.7 -3.6 1.6 99 0.0 SW 19 26 - 14 - - -
18/03:00am 1.8 -3.7 1.7 99 0.0 SW 20 30 - 16 - - -
18/02:30am 1.7 -3.8 1.6 99 0.0 SW 20 28 - 15 - - -
18/02:00am 1.7 -4.2 1.6 99 0.0 SW 22 37 - 20 - - -
18/01:30am 1.8 -4.5 1.7 99 0.0 SW 24 32 - 17 - - -
18/01:00am 1.8 -3.7 1.7 99 0.0 SW 20 30 - 16 - - -
18/12:30am 2.3 -3.1 2.2 99 0.0 SW 20 30 - 16 - - -
18/12:00am 2.2 -3.3 2.1 99 0.0 SW 20 30 - 16 - - -
 
Date/Time
EST
Temp
°C
App
Temp
°C
Dew
Point
°C
Rel
Hum
%
Delta-T
°C
Wind Press
QNH
hPa
Press
MSL
hPa
Rain since
9am
mm
Dir  Spd
km/h
Gust
km/h
Spd
kts
Gust
kts
17/11:30pm 2.4 -4.2 2.3 99 0.0 SW 26 33 - 18 - - -
17/11:00pm 2.4 -3.8 2.3 99 0.0 SW 24 35 - 19 - - -
17/10:30pm 2.5 -2.9 2.4 99 0.0 SW 20 35 - 19 - - -
17/10:00pm 2.6 - 2.5 99 0.0 - - - - - - - -
17/09:30pm 2.6 - 2.5 99 0.0 - - - - - - - -
17/09:00pm 2.4 -3.0 2.3 99 0.0 SW 20 28 - 15 - - -
17/08:30pm 2.3 -3.9 2.2 99 0.0 SW 24 33 - 18 - - -
17/08:00pm 2.1 -3.8 2.0 99 0.0 SW 22 35 - 19 - - -
17/07:00pm 0.7 -4.5 0.4 98 0.1 SW 17 24 - 13 - - -
17/06:30pm 0.6 -4.6 0.2 97 0.2 SW 17 26 - 14 - - -
17/06:00pm 0.8 -4.4 0.4 97 0.2 SW 17 20 - 11 - - -
17/05:30pm 1.1 -4.0 0.8 98 0.1 SW 17 24 - 13 - - -
17/05:00pm 1.0 -4.7 0.7 98 0.1 SW 20 26 - 14 - - -
17/04:30pm 1.0 -4.5 0.9 99 0.0 SW 19 28 - 15 - - -
17/04:00pm 1.1 -4.3 1.0 99 0.0 SW 19 30 - 16 - - -
17/03:30pm 1.5 -3.9 1.2 98 0.1 SW 19 26 - 14 - - -
17/03:00pm 1.4 -4.0 1.1 98 0.1 SW 19 26 - 14 - - -
17/02:30pm 1.4 -4.0 1.0 97 0.2 SW 19 28 - 15 - - -
17/01:30pm 1.7 - 1.4 98 0.1 - - - - - - - -
17/01:00pm 1.7 -2.2 1.3 97 0.2 SW 11 19 - 10 - - -
17/12:30pm 1.4 -2.5 1.0 97 0.2 SW 11 20 - 11 - - -
17/11:30am 1.6 -1.9 1.5 99 0.0 SW 9 13 - 7 - - -
17/11:00am 1.1 -2.4 1.0 99 0.0 SW 9 15 - 8 - - -
17/09:30am 0.9 -3.4 0.8 99 0.0 SW 13 17 - 9 - - -
17/09:00am - - - - - - - - - - - - -
17/08:30am 0.1 -4.4 0.0 99 0.0 SW 13 20 - 11 - - -
17/08:00am -0.1 -4.6 -0.2 99 0.0 WSW 13 17 - 9 - - -
17/07:30am -0.4 -2.5 -0.5 99 0.0 CALM 0 0 - 0 - - -
17/07:00am -0.3 -2.3 -0.4 99 0.0 CALM 0 0 - 0 - - -
17/06:30am -0.4 -2.5 -0.5 99 0.0 CALM 0 0 - 0 - - -
17/06:00am -0.3 -2.3 -0.4 99 0.0 CALM 0 0 - 0 - - -
17/05:30am -0.7 -2.8 -0.8 99 0.0 CALM 0 0 - 0 - - -
17/04:30am 0.4 -3.3 -0.2 96 0.2 WNW 9 13 - 7 - - -
17/03:30am 1.5 -2.1 0.3 92 0.5 NNW 9 15 - 8 - - -
17/02:30am 1.6 -2.0 0.6 93 0.4 NNW 9 15 - 8 - - -
17/02:00am 1.6 -2.0 0.7 94 0.4 NNW 9 13 - 7 - - -
17/01:30am 1.5 -1.7 0.9 96 0.3 NNW 7 11 - 6 - - -
17/01:00am 2.1 -1.7 1.7 97 0.2 N 11 17 - 9 - - -
17/12:30am 1.9 -1.9 1.8 99 0.0 N 11 17 - 9 - - -
17/12:00am 0.9 -2.7 0.8 99 0.0 N 9 15 - 8 - - -
 
Date/Time
EST
Temp
°C
App
Temp
°C
Dew
Point
°C
Rel
Hum
%
Delta-T
°C
Wind Press
QNH
hPa
Press
MSL
hPa
Rain since
9am
mm
Dir  Spd
km/h
Gust
km/h
Spd
kts
Gust
kts
16/11:30pm 0.3 -3.4 0.0 98 0.1 N 9 15 - 8 - - -
16/11:00pm 1.9 -1.5 1.6 98 0.1 N 9 15 - 8 - - -
16/10:30pm 0.8 -2.4 0.7 99 0.0 SW 7 11 - 6 - - -
16/10:00pm 0.2 -3.2 -0.8 93 0.4 WNW 7 13 - 7 - - -
16/09:30pm 1.8 -1.4 0.5 91 0.5 WNW 7 13 - 7 - - -
16/08:30pm 2.8 -0.2 1.8 93 0.4 N 7 13 - 7 - - -
16/07:30pm 2.5 -0.8 2.4 99 0.0 N 9 17 - 9 - - -
16/07:00pm 1.9 -1.1 1.8 99 0.0 NNW 7 13 - 7 - - -
16/06:30pm 0.7 -2.3 0.6 99 0.0 SW 6 9 - 5 - - -
16/06:00pm 1.0 -2.0 0.9 99 0.0 SW 6 9 - 5 - - -
16/05:30pm 1.4 -1.5 1.3 99 0.0 WNW 6 9 - 5 - - -
16/05:00pm 1.6 -1.3 1.3 98 0.1 SSW 6 9 - 5 - - -
16/04:30pm 3.3 1.8 2.9 97 0.2 CALM 0 0 - 0 - - -
16/04:00pm 4.0 1.8 3.4 96 0.3 ENE 4 7 - 4 - - -
16/03:30pm 5.2 3.6 4.6 96 0.3 ESE 2 7 - 4 - - -
16/03:00pm 4.3 2.2 3.7 96 0.3 S 4 6 - 3 - - 0.0
16/02:30pm 5.8 3.5 4.9 94 0.4 ENE 6 11 - 6 - - -
16/02:00pm 4.2 2.1 4.1 99 0.0 S 4 7 - 4 - - -
16/01:30pm 2.7 -0.2 2.6 99 0.0 SW 7 11 - 6 - - -
16/01:00pm 2.5 -0.4 2.4 99 0.0 SW 7 11 - 6 - - -
16/12:30pm 2.1 -0.7 2.0 99 0.0 WSW 6 11 - 6 - - -
16/12:00pm 1.6 -1.3 1.5 99 0.0 SSW 6 9 - 5 - - -
16/11:30am 0.9 -2.3 0.8 99 0.0 SW 7 13 - 7 - - -
16/11:00am 0.6 -3.8 0.5 99 0.0 SW 13 17 - 9 - - -
16/10:30am -0.1 -5.3 -0.2 99 0.0 SW 17 26 - 14 - - 0.0
16/10:00am 0.3 -5.3 0.2 99 0.0 SW 19 26 - 14 - - 0.0
16/09:30am 0.1 -5.1 0.0 99 0.0 SW 17 26 - 14 - - 0.0
16/09:00am 0.2 -5.9 0.1 99 0.0 SW 22 32 - 17 - - 16.0
16/08:30am 0.5 -5.0 0.4 99 0.0 SW 19 28 - 15 - - -
16/08:00am 0.0 -6.2 -0.1 99 0.0 SW 22 30 - 16 - - -
16/07:30am -0.1 -6.7 -0.2 99 0.0 SW 24 32 - 17 - - -
16/07:00am -0.2 -6.4 -0.3 99 0.0 SW 22 35 - 19 - - -
16/06:30am -0.1 -6.3 -0.2 99 0.0 SW 22 32 - 17 - - -
16/06:00am 0.3 -5.5 0.2 99 0.0 SW 20 32 - 17 - - -
16/05:30am 0.3 -5.3 0.2 99 0.0 SW 19 30 - 16 - - -
16/05:00am 0.3 -5.8 0.2 99 0.0 SW 22 41 - 22 - - -
16/04:30am 0.3 -6.2 0.2 99 0.0 SW 24 37 - 20 - - -
16/03:30am 0.5 -6.4 0.4 99 0.0 SW 26 43 - 23 - - -
16/03:00am 0.7 -6.1 0.6 99 0.0 SW 26 44 - 24 - - -
16/02:30am 0.4 -5.7 0.3 99 0.0 SW 22 35 - 19 - - -
16/02:00am 0.0 -6.9 -0.1 99 0.0 WSW 26 37 - 20 - - -
16/01:30am -0.4 -7.4 -0.5 99 0.0 WSW 26 39 - 21 - - -
16/01:00am 0.6 -6.6 0.5 99 0.0 WSW 28 43 - 23 - - -
16/12:30am 0.6 - 0.5 99 0.0 - - - - - - - -
16/12:00am 1.0 - 0.9 99 0.0 - - - - - - - -
 
Date/Time
EST
Temp
°C
App
Temp
°C
Dew
Point
°C
Rel
Hum
%
Delta-T
°C
Wind Press
QNH
hPa
Press
MSL
hPa
Rain since
9am
mm
Dir  Spd
km/h
Gust
km/h
Spd
kts
Gust
kts
15/11:30pm 1.4 -6.1 1.3 99 0.0 WSW 30 48 - 26 - - -
15/11:13pm 1.7 -5.4 1.6 99 0.0 WSW 28 46 - 25 - - -
15/11:00pm 2.8 -3.3 2.7 99 0.0 WSW 24 37 - 20 - - -
15/10:30pm 2.4 -4.9 2.3 99 0.0 SW 30 56 - 30 - - -
15/10:27pm 2.5 -4.4 2.4 99 0.0 SW 28 56 - 30 - - -
15/10:00pm 3.1 -2.6 3.0 99 0.0 WSW 22 46 - 25 - - -
15/09:48pm 2.9 -4.0 2.8 99 0.0 WSW 28 48 - 26 - - -
15/09:30pm 3.0 -3.1 2.9 99 0.0 WSW 24 39 - 21 - - -
15/09:01pm 3.3 -3.9 3.2 99 0.0 WSW 30 48 - 26 - - -
15/09:00pm 3.3 -3.9 3.2 99 0.0 WSW 30 46 - 25 - - -
15/08:48pm 3.4 -3.4 3.3 99 0.0 WSW 28 48 - 26 - - -
15/08:30pm 3.3 -2.3 3.2 99 0.0 WSW 22 41 - 22 - - -
15/08:00pm 3.4 -2.2 3.3 99 0.0 WSW 22 39 - 21 - - -
15/07:30pm 3.3 -2.7 3.2 99 0.0 WSW 24 41 - 22 - - -
15/07:00pm 3.0 -2.7 2.9 99 0.0 WSW 22 39 - 21 - - -
15/06:30pm 3.1 -2.6 3.0 99 0.0 WSW 22 39 - 21 - - -
15/06:00pm 3.2 -3.2 3.1 99 0.0 WSW 26 43 - 23 - - -
15/05:30pm 3.2 -2.8 3.1 99 0.0 WSW 24 43 - 23 - - -
15/05:00pm 3.1 -3.0 3.0 99 0.0 WSW 24 41 - 22 - - -
15/04:30pm 3.3 -2.3 3.2 99 0.0 WSW 22 35 - 19 - - -
15/04:00pm 3.4 -1.9 2.8 96 0.3 WSW 20 41 - 22 - - -
15/03:30pm 3.9 -1.5 2.6 91 0.6 W 20 35 - 19 - - -
15/03:00pm 3.4 -1.8 2.5 94 0.4 W 19 35 - 19 - - 0.0
15/02:30pm 3.2 -2.2 2.3 94 0.4 WSW 20 30 - 16 - - -
15/02:00pm 3.4 -2.0 2.4 93 0.4 WSW 20 30 - 16 - - -
15/01:30pm 3.5 -1.9 2.3 92 0.5 W 20 35 - 19 - - -
15/01:00pm 3.5 -1.9 2.6 94 0.4 WSW 20 33 - 18 - - -
15/12:30pm 2.6 -2.6 2.3 98 0.1 W 19 37 - 20 - - -
15/12:00pm 2.2 -3.7 1.9 98 0.1 W 22 35 - 19 - - -
15/11:30am 2.1 -3.8 2.0 99 0.0 W 22 43 - 23 - - -
15/11:00am 2.0 -3.5 1.9 99 0.0 W 20 39 - 21 - - -
15/10:30am 1.9 -3.6 1.8 99 0.0 WSW 20 33 - 18 - - 0.0
15/10:00am 1.4 -4.6 1.3 99 0.0 WSW 22 39 - 21 - - 0.0
15/09:30am 1.3 -4.1 1.2 99 0.0 WSW 19 30 - 16 - - 0.0
15/09:00am 1.3 -4.3 1.2 99 0.0 WSW 20 39 - 21 - - 0.4

Other formats

Comma delimited format used in spreadsheet applications
http://www.bom.gov.au/fwo/IDV60801/IDV60801.95901.axf

JavaScript Object Notation format (JSON) in row-major order
http://www.bom.gov.au/fwo/IDV60801/IDV60801.95901.json

Data quality

Most of these data are generated automatically and are frequently updated. Quality checks on data are not normally performed. It is possible for incorrect values to appear. Refer to information at About Latest Weather Observations and please check the disclaimer before using these data.